Argyle, Texas
Current Conditions -  °F | °C
As of 10:53 PM on Friday 28 Nov 2014 (Local Time) from KDTO Reporting Station
Clear Clear  
Wind Chill: 61°   Ceiling: Unl
Heat Index: 61°   Visibility: 10mi
Dew Point: 45°   Wind: 18mph
Humidity: 56%   Direction: 190°S
Pressure: 29.96"   Gusts: NA
Location:  33.12°N, 97.18°W
Report Text: KDTO 290453Z AUTO 19016KT 10SM CLR 16/07 A2996 RMK AO2 SLP142 T01610072
Loading
Personal Weather Stations






























Interactive Weather Map New forecast layout! Learn more

10-Day Weather Forecast

Advertisements
Track Severe Weather on mobile